Time;durP1;ratioP1;P1;durP2;ratioP2;P2;SDS_P1;SDS_P2;PMS_P1;PMS_P2;Temp;Humidity;BMP_temperature;BMP_pressure;BME280_temperature;BME280_humidity;BME280_pressure;Samples;Min_cycle;Max_cycle;Signal;HPM_P1;HPM_P2
2022/12/30 00:01:58;;;;;;;;;;;;;;;6.79;100.00;96622.75;5064615;28;19931;-66
2022/12/30 00:04:23;;;;;;;;;;;;;;;6.78;100.00;96626.59;5060010;28;19916;-65
2022/12/30 00:06:49;;;;;;;;;;;;;;;6.78;100.00;96636.69;5063743;28;19925;-67
2022/12/30 00:09:14;;;;;;;;;;;;;;;6.81;100.00;96636.00;5059230;28;19917;-64
2022/12/30 00:11:39;;;;;;;;;;;;;;;6.81;100.00;96644.19;5064199;28;19920;-66
2022/12/30 00:33:28;;;;;;;;;;;;;;;6.48;100.00;96664.97;5058293;28;20012;-66
2022/12/30 00:35:54;;;;;;;;;;;;;;;6.38;100.00;96670.06;5063130;28;19923;-66
2022/12/30 00:38:19;;;;;;;;;;;;;;;6.21;100.00;96688.19;5059520;28;19928;-66
2022/12/30 00:43:07;;;;;;;;;;;;;;;6.23;100.00;96688.66;5064629;28;19939;-65
2022/12/30 00:43:30;;;;;;;;;;;;;;;6.17;100.00;96691.91;5062438;28;19928;-66
2022/12/30 00:45:55;;;;;;;;;;;;;;;6.19;100.00;96700.53;5063449;28;19920;-65
2022/12/30 00:56:33;;;;;;;;;;;;;;;5.98;100.00;96706.84;5036782;28;19917;-66
2022/12/30 00:58:58;;;;;;;;;;;;;;;5.97;100.00;96709.88;5043869;28;20608;-66
2022/12/30 01:01:23;;;;;;;;;;;;;;;5.90;100.00;96710.41;5038171;28;20477;-66
2022/12/30 01:03:48;;;;;;;;;;;;;;;5.92;100.00;96719.00;5043505;28;19917;-67
2022/12/30 01:06:14;;;;;;;;;;;;;;;5.84;100.00;96720.69;5037800;28;20027;-66
2022/12/30 01:08:39;;;;;;;;;;;;;;;5.85;100.00;96724.19;5043229;28;19924;-66
2022/12/30 01:11:08;;;;;;;;;;;;;;;5.82;100.00;96730.31;5038676;28;19917;-67
2022/12/30 01:13:34;;;;;;;;;;;;;;;5.78;100.00;96737.53;5042582;28;19917;-66
2022/12/30 01:16:05;;;;;;;;;;;;;;;5.78;100.00;96726.66;5042213;28;19924;-66
2022/12/30 01:18:30;;;;;;;;;;;;;;;5.67;100.00;96742.59;5043356;28;19924;-66
2022/12/30 01:20:58;;;;;;;;;;;;;;;5.68;100.00;96736.81;5043292;28;19920;-66
2022/12/30 01:23:23;;;;;;;;;;;;;;;5.63;100.00;96745.19;5040634;28;20413;-67
2022/12/30 01:25:49;;;;;;;;;;;;;;;5.62;100.00;96751.75;5043361;28;19964;-66
2022/12/30 01:28:14;;;;;;;;;;;;;;;5.65;100.00;96756.50;5037521;28;19923;-66
2022/12/30 01:30:39;;;;;;;;;;;;;;;5.57;100.00;96757.38;5043513;28;19916;-66
2022/12/30 01:33:04;;;;;;;;;;;;;;;5.58;100.00;96764.41;5037870;28;19917;-66
2022/12/30 01:35:31;;;;;;;;;;;;;;;5.63;100.00;96769.63;5042486;28;20358;-66
2022/12/30 01:37:56;;;;;;;;;;;;;;;5.58;100.00;96769.84;5043092;28;19971;-66
2022/12/30 01:40:21;;;;;;;;;;;;;;;5.59;100.00;96782.31;5037695;28;19924;-66
2022/12/30 01:42:47;;;;;;;;;;;;;;;5.57;100.00;96770.19;5043018;28;20023;-66
2022/12/30 01:45:18;;;;;;;;;;;;;;;5.59;100.00;96781.50;5037390;28;20393;-66
2022/12/30 01:48:22;;;;;;;;;;;;;;;5.55;100.00;96773.22;5023068;28;19925;-66
2022/12/30 01:50:53;;;;;;;;;;;;;;;5.60;100.00;96783.09;4941831;28;20009;-66
2022/12/30 01:53:20;;;;;;;;;;;;;;;5.56;100.00;96782.97;4936043;29;19989;-66
2022/12/30 01:55:50;;;;;;;;;;;;;;;5.52;100.00;96787.47;4983602;28;19944;-65
2022/12/30 01:58:18;;;;;;;;;;;;;;;5.53;100.00;96787.16;5033368;28;19917;-65
2022/12/30 02:00:44;;;;;;;;;;;;;;;5.61;100.00;96788.19;5044544;28;19956;-65
2022/12/30 02:03:10;;;;;;;;;;;;;;;5.60;100.00;96788.53;5034213;28;19955;-65
2022/12/30 02:05:37;;;;;;;;;;;;;;;5.53;100.00;96789.88;5040948;28;19923;-65
2022/12/30 02:08:05;;;;;;;;;;;;;;;5.61;100.00;96792.84;5022759;28;19928;-67
2022/12/30 02:10:32;;;;;;;;;;;;;;;5.61;100.00;96793.63;5042085;28;19921;-65
2022/12/30 02:12:58;;;;;;;;;;;;;;;5.58;100.00;96794.28;5024554;28;19923;-65
2022/12/30 02:15:25;;;;;;;;;;;;;;;5.56;100.00;96796.53;5036756;28;19917;-65
2022/12/30 02:17:59;;;;;;;;;;;;;;;5.50;100.00;96800.59;5041535;28;19917;-65
2022/12/30 02:20:34;;;;;;;;;;;;;;;5.59;100.00;96803.25;5018816;28;19928;-65
2022/12/30 02:23:18;;;;;;;;;;;;;;;5.75;100.00;96788.72;5042368;28;19962;-65
2022/12/30 02:26:00;;;;;;;;;;;;;;;5.82;100.00;96790.91;5040894;28;19931;-65
2022/12/30 02:28:52;;;;;;;;;;;;;;;5.76;100.00;96792.22;5036018;28;19952;-65
2022/12/30 02:31:27;;;;;;;;;;;;;;;5.48;100.00;96792.78;5038096;28;19923;-65
2022/12/30 02:34:19;;;;;;;;;;;;;;;5.57;100.00;96800.88;5043123;28;19940;-65
2022/12/30 02:36:44;;;;;;;;;;;;;;;5.56;100.00;96796.53;5017157;28;20008;-65
2022/12/30 02:39:22;;;;;;;;;;;;;;;5.54;100.00;96794.16;5036083;28;20012;-65
2022/12/30 02:45:00;;;;;;;;;;;;;;;5.53;100.00;96794.50;4980934;28;19926;-65
2022/12/30 02:47:37;;;;;;;;;;;;;;;5.41;100.00;96795.22;5025418;28;19921;-65
2022/12/30 02:52:50;;;;;;;;;;;;;;;5.48;100.00;96789.28;5050300;28;19917;-67
2022/12/30 02:55:16;;;;;;;;;;;;;;;5.39;100.00;96792.03;5042250;28;19917;-67
2022/12/30 02:57:41;;;;;;;;;;;;;;;5.42;100.00;96777.81;5051288;28;19920;-66
2022/12/30 03:05:53;;;;;;;;;;;;;;;5.43;100.00;96779.38;5038643;28;19921;-67
2022/12/30 03:08:24;;;;;;;;;;;;;;;5.43;100.00;96782.09;5036141;28;19921;-67
2022/12/30 03:11:12;;;;;;;;;;;;;;;5.41;100.00;96776.22;5041446;28;19917;-67
2022/12/30 03:13:37;;;;;;;;;;;;;;;5.38;100.00;96779.56;5040944;28;20015;-67
2022/12/30 03:16:10;;;;;;;;;;;;;;;5.37;100.00;96764.41;5038190;28;20560;-67
2022/12/30 03:18:36;;;;;;;;;;;;;;;5.44;100.00;96772.84;5046155;28;19983;-67
2022/12/30 03:21:04;;;;;;;;;;;;;;;5.42;100.00;96771.56;5045774;28;19971;-67
2022/12/30 03:29:01;;;;;;;;;;;;;;;5.39;100.00;96777.69;5041314;28;20368;-66
2022/12/30 03:34:29;;;;;;;;;;;;;;;5.39;100.00;96770.31;5035178;28;19916;-67
2022/12/30 03:37:06;;;;;;;;;;;;;;;5.42;100.00;96779.72;5040233;28;19917;-66
2022/12/30 03:39:36;;;;;;;;;;;;;;;5.34;100.00;96781.38;5039722;28;20003;-66
2022/12/30 03:42:03;;;;;;;;;;;;;;;5.33;100.00;96775.16;5039395;28;20441;-66
2022/12/30 03:44:29;;;;;;;;;;;;;;;5.14;100.00;96778.31;5029035;28;19916;-65
2022/12/30 03:46:54;;;;;;;;;;;;;;;5.03;100.00;96760.03;5042178;28;20069;-66
2022/12/30 03:49:19;;;;;;;;;;;;;;;5.03;100.00;96760.03;5046018;28;19920;-65
2022/12/30 03:51:45;;;;;;;;;;;;;;;5.18;100.00;96767.56;5048269;28;19939;-65
2022/12/30 03:54:10;;;;;;;;;;;;;;;5.13;100.00;96760.44;5057690;28;19916;-65
2022/12/30 03:56:36;;;;;;;;;;;;;;;5.30;100.00;96750.56;5043085;28;19956;-65
2022/12/30 03:59:01;;;;;;;;;;;;;;;5.25;100.00;96735.25;5048516;28;19984;-65
2022/12/30 04:01:26;;;;;;;;;;;;;;;5.49;100.00;96739.22;5050652;28;20485;-64
2022/12/30 04:03:51;;;;;;;;;;;;;;;5.44;100.00;96737.53;5044072;28;19917;-64
2022/12/30 04:06:17;;;;;;;;;;;;;;;5.42;100.00;96736.25;5038595;28;20386;-64
2022/12/30 04:08:42;;;;;;;;;;;;;;;5.31;100.00;96733.13;5043962;28;20278;-64
2022/12/30 04:11:08;;;;;;;;;;;;;;;5.37;100.00;96729.13;5038836;28;20019;-64
2022/12/30 04:13:33;;;;;;;;;;;;;;;5.32;100.00;96740.97;5033770;28;20456;-66
2022/12/30 04:15:59;;;;;;;;;;;;;;;5.30;100.00;96737.00;5044134;28;19928;-64
2022/12/30 04:18:25;;;;;;;;;;;;;;;5.26;100.00;96730.66;5051624;28;19925;-65
2022/12/30 04:20:50;;;;;;;;;;;;;;;5.08;100.00;96728.03;5042511;28;19924;-65
2022/12/30 04:23:16;;;;;;;;;;;;;;;5.05;100.00;96736.06;5038927;28;19921;-64
2022/12/30 04:25:41;;;;;;;;;;;;;;;5.02;100.00;96728.56;5043248;28;19921;-64
2022/12/30 04:28:07;;;;;;;;;;;;;;;5.13;100.00;96718.91;5037947;28;20420;-66
2022/12/30 04:30:33;;;;;;;;;;;;;;;5.24;100.00;96709.25;5043953;28;19939;-67
2022/12/30 04:32:59;;;;;;;;;;;;;;;5.09;100.00;96707.13;5045548;28;19924;-67
2022/12/30 04:35:24;;;;;;;;;;;;;;;5.00;100.00;96715.31;5037239;28;19921;-68
2022/12/30 04:37:50;;;;;;;;;;;;;;;4.91;100.00;96715.38;5043275;28;19924;-64
2022/12/30 04:40:15;;;;;;;;;;;;;;;4.76;100.00;96716.75;5045089;28;19927;-64
2022/12/30 04:42:41;;;;;;;;;;;;;;;4.70;100.00;96715.34;5043162;28;20639;-65
2022/12/30 04:45:06;;;;;;;;;;;;;;;4.68;100.00;96712.16;5037819;28;20389;-72
2022/12/30 04:47:31;;;;;;;;;;;;;;;4.73;100.00;96714.66;5042237;28;19924;-72
2022/12/30 04:49:57;;;;;;;;;;;;;;;4.83;100.00;96710.81;5042992;28;20392;-72
2022/12/30 04:52:22;;;;;;;;;;;;;;;4.83;100.00;96713.50;5027376;28;19978;-70
2022/12/30 04:54:47;;;;;;;;;;;;;;;4.76;100.00;96710.53;5053787;28;19921;-70
2022/12/30 04:57:13;;;;;;;;;;;;;;;4.58;100.00;96705.19;5037511;28;19916;-71
2022/12/30 04:59:38;;;;;;;;;;;;;;;4.40;100.00;96706.41;5050636;28;20317;-71
2022/12/30 05:02:03;;;;;;;;;;;;;;;4.17;100.00;96703.94;5059643;28;19921;-73
2022/12/30 05:04:28;;;;;;;;;;;;;;;4.00;100.00;96706.72;5061112;28;19923;-72
2022/12/30 05:06:54;;;;;;;;;;;;;;;3.80;100.00;96709.00;5062974;28;19928;-72
2022/12/30 05:09:19;;;;;;;;;;;;;;;3.73;100.00;96702.47;5036585;28;19920;-72
2022/12/30 05:11:44;;;;;;;;;;;;;;;3.70;100.00;96703.13;5043724;28;19962;-72
2022/12/30 05:14:10;;;;;;;;;;;;;;;3.64;100.00;96707.91;5037880;28;19969;-72
2022/12/30 05:16:35;;;;;;;;;;;;;;;3.58;100.00;96710.00;5042485;28;19979;-72
2022/12/30 05:19:00;;;;;;;;;;;;;;;3.59;100.00;96706.16;5043013;28;19920;-72
2022/12/30 05:21:26;;;;;;;;;;;;;;;3.55;100.00;96710.63;5037930;28;20373;-72
2022/12/30 05:26:35;;;;;;;;;;;;;;;3.43;100.00;96713.19;5041459;28;20016;-72
2022/12/30 05:29:00;;;;;;;;;;;;;;;3.47;100.00;96719.53;5047060;28;20409;-72
2022/12/30 05:31:25;;;;;;;;;;;;;;;3.49;100.00;96706.47;5040096;28;19943;-72
2022/12/30 05:33:51;;;;;;;;;;;;;;;3.42;100.00;96701.56;5042976;28;19916;-72
2022/12/30 05:36:16;;;;;;;;;;;;;;;3.30;100.00;96698.69;5019188;28;19920;-73
2022/12/30 05:38:41;;;;;;;;;;;;;;;3.19;100.00;96694.72;5042343;28;19924;-71
2022/12/30 05:41:07;;;;;;;;;;;;;;;2.89;100.00;96696.47;5019472;28;19921;-71
2022/12/30 05:43:32;;;;;;;;;;;;;;;2.62;100.00;96692.91;5042005;28;20019;-71
2022/12/30 05:45:57;;;;;;;;;;;;;;;2.58;100.00;96695.44;5042808;28;19925;-71
2022/12/30 05:48:23;;;;;;;;;;;;;;;2.62;100.00;96695.63;5048690;28;19916;-71
2022/12/30 05:50:49;;;;;;;;;;;;;;;2.63;100.00;96703.41;5042280;28;20345;-72
2022/12/30 05:53:14;;;;;;;;;;;;;;;2.65;100.00;96700.41;5030419;28;19970;-71
2022/12/30 05:55:39;;;;;;;;;;;;;;;2.64;100.00;96699.59;5042044;28;19972;-72
2022/12/30 05:58:05;;;;;;;;;;;;;;;2.60;100.00;96697.84;5045476;28;19921;-75
2022/12/30 06:00:30;;;;;;;;;;;;;;;2.62;100.00;96701.81;5042458;28;19975;-73
2022/12/30 06:02:56;;;;;;;;;;;;;;;2.59;100.00;96704.34;5042325;28;19924;-72
2022/12/30 06:05:21;;;;;;;;;;;;;;;2.52;100.00;96693.19;5036867;28;20053;-73
2022/12/30 06:07:47;;;;;;;;;;;;;;;2.27;100.00;96696.31;5024653;28;19921;-72
2022/12/30 06:10:12;;;;;;;;;;;;;;;2.09;100.00;96694.66;5036964;28;19967;-71
2022/12/30 06:12:37;;;;;;;;;;;;;;;1.95;100.00;96694.75;5024817;28;19972;-71
2022/12/30 06:15:03;;;;;;;;;;;;;;;2.00;100.00;96701.91;5038186;28;20365;-75
2022/12/30 06:17:28;;;;;;;;;;;;;;;2.23;100.00;96699.94;5038273;28;19924;-72
2022/12/30 06:19:53;;;;;;;;;;;;;;;2.31;100.00;96704.59;5024260;28;20308;-72
2022/12/30 06:22:18;;;;;;;;;;;;;;;2.25;100.00;96709.34;5019370;28;20004;-71
2022/12/30 06:24:44;;;;;;;;;;;;;;;2.07;100.00;96711.19;5041891;28;19924;-72
2022/12/30 06:27:09;;;;;;;;;;;;;;;2.15;100.00;96709.63;5034834;28;19928;-72
2022/12/30 06:29:34;;;;;;;;;;;;;;;1.98;100.00;96710.34;5041468;28;20564;-72
2022/12/30 06:31:59;;;;;;;;;;;;;;;1.81;100.00;96713.72;5041615;28;19997;-72
2022/12/30 06:34:25;;;;;;;;;;;;;;;1.79;100.00;96715.16;5036659;28;20366;-71
2022/12/30 06:36:50;;;;;;;;;;;;;;;1.82;100.00;96701.84;5040592;28;20318;-72
2022/12/30 06:39:16;;;;;;;;;;;;;;;1.96;100.00;96700.94;5037366;28;20342;-73
2022/12/30 06:41:41;;;;;;;;;;;;;;;2.01;100.00;96717.03;5041606;28;19916;-72
2022/12/30 06:44:06;;;;;;;;;;;;;;;1.97;100.00;96707.94;5018935;28;19984;-73
2022/12/30 06:52:37;;;;;;;;;;;;;;;1.90;100.00;96703.75;5043105;28;19943;-71
2022/12/30 06:55:03;;;;;;;;;;;;;;;1.92;100.00;96696.16;5043705;28;19921;-74
2022/12/30 06:57:28;;;;;;;;;;;;;;;1.95;100.00;96707.47;5036240;28;19983;-72
2022/12/30 06:59:54;;;;;;;;;;;;;;;1.95;100.00;96708.25;5052094;28;19985;-73
2022/12/30 07:02:19;;;;;;;;;;;;;;;1.98;100.00;96712.22;5045593;28;20382;-72
2022/12/30 07:04:44;;;;;;;;;;;;;;;1.89;100.00;96707.59;5040801;28;19923;-66
2022/12/30 07:07:10;;;;;;;;;;;;;;;1.75;100.00;96708.75;5032277;28;19921;-65
2022/12/30 07:09:35;;;;;;;;;;;;;;;1.74;100.00;96721.47;5040778;28;19920;-65
2022/12/30 07:12:00;;;;;;;;;;;;;;;1.78;100.00;96727.84;5039900;28;19928;-65
2022/12/30 07:14:25;;;;;;;;;;;;;;;1.63;100.00;96733.63;5038855;28;20331;-65
2022/12/30 07:16:51;;;;;;;;;;;;;;;1.55;100.00;96726.25;5030699;28;19917;-65
2022/12/30 07:19:16;;;;;;;;;;;;;;;1.29;100.00;96729.59;5042794;28;19940;-65
2022/12/30 07:21:41;;;;;;;;;;;;;;;1.11;100.00;96726.72;5041131;28;19916;-68
2022/12/30 07:24:07;;;;;;;;;;;;;;;0.98;100.00;96722.19;5028917;28;19916;-65
2022/12/30 07:26:32;;;;;;;;;;;;;;;0.95;100.00;96718.22;5043864;28;19925;-71
2022/12/30 07:28:57;;;;;;;;;;;;;;;1.02;100.00;96725.88;5045049;28;19920;-66
2022/12/30 07:31:23;;;;;;;;;;;;;;;1.20;100.00;96731.41;5041886;28;20569;-65
2022/12/30 07:33:48;;;;;;;;;;;;;;;1.39;100.00;96733.94;5043716;28;19917;-65
2022/12/30 07:36:14;;;;;;;;;;;;;;;1.54;100.00;96722.78;5038370;28;19916;-66
2022/12/30 07:38:39;;;;;;;;;;;;;;;1.59;100.00;96719.16;5042706;28;19920;-66
2022/12/30 07:41:04;;;;;;;;;;;;;;;1.68;100.00;96722.72;5039699;28;20750;-67
2022/12/30 07:43:30;;;;;;;;;;;;;;;1.47;100.00;96723.19;5036779;28;19979;-66
2022/12/30 07:45:55;;;;;;;;;;;;;;;1.32;100.00;96732.47;5044161;28;19929;-66
2022/12/30 07:48:20;;;;;;;;;;;;;;;1.51;100.00;96729.59;5045275;28;19944;-66
2022/12/30 07:50:46;;;;;;;;;;;;;;;1.98;100.00;96721.16;5046812;28;19921;-66
2022/12/30 07:53:11;;;;;;;;;;;;;;;2.16;100.00;96716.63;5038713;28;19987;-66
2022/12/30 07:55:40;;;;;;;;;;;;;;;2.77;100.00;96713.28;5042465;28;19960;-66
2022/12/30 07:58:06;;;;;;;;;;;;;;;3.34;100.00;96704.28;5038231;28;20440;-65
2022/12/30 08:00:31;;;;;;;;;;;;;;;3.90;100.00;96704.34;5050412;28;19929;-66
2022/12/30 08:02:56;;;;;;;;;;;;;;;3.37;100.00;96703.63;5043509;28;19928;-66
2022/12/30 08:05:22;;;;;;;;;;;;;;;2.75;100.00;96705.50;5038725;28;20408;-66
2022/12/30 08:07:47;;;;;;;;;;;;;;;2.96;100.00;96704.91;5043717;28;19921;-66
2022/12/30 08:10:12;;;;;;;;;;;;;;;3.21;100.00;96709.53;5038388;28;19917;-66
2022/12/30 08:12:37;;;;;;;;;;;;;;;3.95;100.00;96706.88;5043857;28;19921;-67
2022/12/30 08:15:03;;;;;;;;;;;;;;;4.58;100.00;96701.69;5040636;28;19917;-68
2022/12/30 08:17:28;;;;;;;;;;;;;;;4.13;100.00;96713.84;5040148;28;19928;-67
2022/12/30 08:19:54;;;;;;;;;;;;;;;3.66;100.00;96702.19;5042505;28;20006;-67
2022/12/30 08:22:19;;;;;;;;;;;;;;;3.88;100.00;96706.59;5038318;28;20302;-67
2022/12/30 08:24:44;;;;;;;;;;;;;;;4.42;100.00;96712.28;5045816;28;19964;-67
2022/12/30 08:27:09;;;;;;;;;;;;;;;5.02;100.00;96720.41;5037142;28;20286;-67
2022/12/30 08:29:35;;;;;;;;;;;;;;;5.55;100.00;96716.97;5043178;28;19917;-67
2022/12/30 08:32:00;;;;;;;;;;;;;;;6.09;100.00;96709.91;5043103;28;19927;-67
2022/12/30 08:34:25;;;;;;;;;;;;;;;6.67;100.00;96702.47;5037479;28;19987;-67
2022/12/30 08:36:50;;;;;;;;;;;;;;;7.07;100.00;96699.00;5030661;28;19928;-67
2022/12/30 08:39:16;;;;;;;;;;;;;;;6.74;100.00;96704.63;5036643;28;19921;-68
2022/12/30 08:41:43;;;;;;;;;;;;;;;6.30;100.00;96710.63;5043429;28;19920;-68
2022/12/30 08:44:09;;;;;;;;;;;;;;;6.01;100.00;96708.09;5059155;28;19924;-68
2022/12/30 08:46:35;;;;;;;;;;;;;;;5.59;100.00;96700.78;5047966;28;19967;-68
2022/12/30 08:49:00;;;;;;;;;;;;;;;5.58;100.00;96709.28;5042821;28;19994;-65
2022/12/30 08:51:26;;;;;;;;;;;;;;;5.48;100.00;96707.78;5044212;28;20678;-65
2022/12/30 08:53:51;;;;;;;;;;;;;;;5.38;100.00;96705.44;5043216;28;20036;-66
2022/12/30 08:56:21;;;;;;;;;;;;;;;5.79;100.00;96703.81;5033702;28;19920;-67
2022/12/30 08:58:46;;;;;;;;;;;;;;;6.63;100.00;96698.84;5050315;28;20394;-66
2022/12/30 09:01:16;;;;;;;;;;;;;;;7.84;100.00;96689.91;5038751;28;19927;-65
2022/12/30 09:03:42;;;;;;;;;;;;;;;8.94;100.00;96700.41;5042560;28;20019;-65
2022/12/30 09:06:09;;;;;;;;;;;;;;;8.84;98.58;96696.31;5037719;28;19980;-66
2022/12/30 09:08:34;;;;;;;;;;;;;;;9.09;100.00;96685.94;5042233;28;19916;-66
2022/12/30 09:11:01;;;;;;;;;;;;;;;8.13;100.00;96678.94;5044132;28;19928;-67
2022/12/30 09:13:27;;;;;;;;;;;;;;;7.18;100.00;96668.59;5038056;28;19917;-67
2022/12/30 09:15:52;;;;;;;;;;;;;;;6.69;100.00;96664.81;5040554;28;19928;-66
2022/12/30 09:18:17;;;;;;;;;;;;;;;6.77;100.00;96662.31;5037027;28;20330;-67
2022/12/30 09:20:43;;;;;;;;;;;;;;;6.57;100.00;96670.28;5025468;28;19970;-66
2022/12/30 09:23:09;;;;;;;;;;;;;;;7.30;100.00;96665.03;5035805;28;19951;-66
2022/12/30 09:25:34;;;;;;;;;;;;;;;7.39;100.00;96657.50;5041802;28;20112;-67
2022/12/30 09:27:59;;;;;;;;;;;;;;;7.64;100.00;96671.84;5061438;28;19976;-66
2022/12/30 09:30:25;;;;;;;;;;;;;;;8.49;100.00;96666.22;5044591;28;19925;-67
2022/12/30 09:32:50;;;;;;;;;;;;;;;8.28;100.00;96671.91;5041640;28;19928;-67
2022/12/30 09:35:15;;;;;;;;;;;;;;;7.89;100.00;96661.59;5037583;28;20548;-66
2022/12/30 09:37:41;;;;;;;;;;;;;;;7.56;100.00;96643.59;5024405;28;19920;-66
2022/12/30 09:40:08;;;;;;;;;;;;;;;7.07;100.00;96638.31;5037726;28;20453;-66
2022/12/30 09:45:32;;;;;;;;;;;;;;;7.02;100.00;96639.38;5036497;28;20617;-65
2022/12/30 09:48:03;;;;;;;;;;;;;;;6.93;100.00;96632.44;5042198;28;19952;-67
2022/12/30 09:50:31;;;;;;;;;;;;;;;8.13;100.00;96641.53;5040190;28;20313;-67
2022/12/30 09:53:04;;;;;;;;;;;;;;;9.29;100.00;96647.66;5042522;28;19921;-67
2022/12/30 09:55:32;;;;;;;;;;;;;;;8.15;100.00;96644.69;5035354;28;19924;-66
2022/12/30 09:58:00;;;;;;;;;;;;;;;8.23;100.00;96634.78;5048133;28;19971;-66
2022/12/30 10:00:28;;;;;;;;;;;;;;;8.12;100.00;96626.34;5041266;28;19917;-67
2022/12/30 10:03:12;;;;;;;;;;;;;;;8.31;100.00;96619.34;5041683;28;20712;-66
2022/12/30 10:05:53;;;;;;;;;;;;;;;8.70;100.00;96614.84;5040891;28;19936;-67
2022/12/30 10:08:26;;;;;;;;;;;;;;;9.09;100.00;96619.53;5037725;28;19936;-66
2022/12/30 10:10:56;;;;;;;;;;;;;;;9.68;100.00;96612.09;5042543;28;19939;-67
2022/12/30 10:13:33;;;;;;;;;;;;;;;8.39;100.00;96602.81;5036952;28;20446;-66
2022/12/30 10:16:07;;;;;;;;;;;;;;;8.23;100.00;96591.91;5041564;28;19932;-67
2022/12/30 10:18:41;;;;;;;;;;;;;;;7.70;100.00;96588.66;5041070;28;19964;-67
2022/12/30 10:21:18;;;;;;;;;;;;;;;7.48;100.00;96576.41;5037267;28;20304;-68
2022/12/30 10:23:50;;;;;;;;;;;;;;;7.81;100.00;96578.81;5041577;28;19924;-67
2022/12/30 10:26:19;;;;;;;;;;;;;;;7.85;100.00;96574.25;5018227;28;19971;-67
2022/12/30 10:28:50;;;;;;;;;;;;;;;7.85;100.00;96578.91;5041775;28;20019;-67
2022/12/30 10:31:20;;;;;;;;;;;;;;;8.76;100.00;96566.97;5055068;28;20015;-67
2022/12/30 10:33:47;;;;;;;;;;;;;;;9.78;100.00;96554.09;5061656;28;19920;-68
2022/12/30 10:36:18;;;;;;;;;;;;;;;10.45;94.47;96548.13;5054301;28;19920;-68
2022/12/30 10:38:43;;;;;;;;;;;;;;;10.57;91.54;96538.09;5061027;28;20237;-65
2022/12/30 10:41:28;;;;;;;;;;;;;;;11.46;84.96;96536.41;5055077;28;20051;-65
2022/12/30 10:44:14;;;;;;;;;;;;;;;10.29;93.45;96529.06;5061734;28;20015;-68
2022/12/30 10:46:52;;;;;;;;;;;;;;;11.38;87.07;96532.03;5061255;28;19982;-65
2022/12/30 10:49:33;;;;;;;;;;;;;;;9.58;94.37;96534.22;5055631;28;19924;-65
2022/12/30 10:52:00;;;;;;;;;;;;;;;9.30;98.52;96531.75;5060968;28;20329;-68
2022/12/30 10:54:25;;;;;;;;;;;;;;;8.65;100.00;96518.75;5053709;28;19925;-68
2022/12/30 10:56:50;;;;;;;;;;;;;;;8.19;100.00;96502.91;5038445;28;19917;-68
2022/12/30 10:59:18;;;;;;;;;;;;;;;7.77;100.00;96495.34;5040062;28;20370;-67
2022/12/30 11:01:46;;;;;;;;;;;;;;;8.03;100.00;96498.31;5045185;28;19924;-67
2022/12/30 11:04:29;;;;;;;;;;;;;;;8.52;100.00;96497.06;5040574;28;19920;-67
2022/12/30 11:06:58;;;;;;;;;;;;;;;8.71;100.00;96490.78;5045227;28;19921;-67
2022/12/30 11:09:24;;;;;;;;;;;;;;;8.13;100.00;96480.59;5040579;28;20293;-66
2022/12/30 11:14:45;;;;;;;;;;;;;;;8.03;100.00;96476.47;5043231;28;19916;-66
2022/12/30 11:17:21;;;;;;;;;;;;;;;8.47;100.00;96474.72;5040738;28;19917;-66
2022/12/30 11:19:51;;;;;;;;;;;;;;;8.34;100.00;96474.03;5051687;28;20397;-67
2022/12/30 11:22:17;;;;;;;;;;;;;;;8.37;100.00;96470.56;5040170;28;20598;-66
2022/12/30 11:24:54;;;;;;;;;;;;;;;8.43;100.00;96474.66;5045755;28;19923;-66
2022/12/30 11:27:46;;;;;;;;;;;;;;;8.84;100.00;96468.81;5038945;28;19928;-66
2022/12/30 11:30:27;;;;;;;;;;;;;;;9.65;99.32;96457.75;5045858;28;19959;-67
2022/12/30 11:32:54;;;;;;;;;;;;;;;9.10;100.00;96460.72;5063985;28;19920;-66
2022/12/30 11:35:39;;;;;;;;;;;;;;;8.77;100.00;96455.81;5059000;28;19925;-66
2022/12/30 11:38:24;;;;;;;;;;;;;;;9.01;100.00;96443.00;5058690;28;19917;-67
2022/12/30 11:40:49;;;;;;;;;;;;;;;9.08;100.00;96449.38;5064345;28;19917;-65
2022/12/30 11:43:16;;;;;;;;;;;;;;;8.56;100.00;96454.25;5058536;28;19916;-66
2022/12/30 11:45:51;;;;;;;;;;;;;;;8.27;100.00;96443.88;5063431;28;19924;-65
2022/12/30 11:48:19;;;;;;;;;;;;;;;8.40;100.00;96440.63;5063517;28;19932;-66
2022/12/30 11:50:49;;;;;;;;;;;;;;;8.69;100.00;96451.38;5068262;28;19917;-65
2022/12/30 11:53:17;;;;;;;;;;;;;;;9.07;100.00;96444.28;5054964;28;20007;-66
2022/12/30 11:55:49;;;;;;;;;;;;;;;8.82;100.00;96444.59;5033803;28;20360;-65
2022/12/30 11:58:14;;;;;;;;;;;;;;;9.26;100.00;96463.34;5055950;28;19922;-65
2022/12/30 12:00:40;;;;;;;;;;;;;;;9.76;100.00;96442.31;5046985;28;20003;-66
2022/12/30 12:03:12;;;;;;;;;;;;;;;9.91;98.20;96442.53;5038466;28;20497;-65
2022/12/30 12:05:42;;;;;;;;;;;;;;;9.99;94.35;96452.41;5043089;28;19921;-67
2022/12/30 12:08:14;;;;;;;;;;;;;;;10.04;96.42;96463.03;5037173;28;20016;-66
2022/12/30 12:10:40;;;;;;;;;;;;;;;10.21;96.48;96455.44;5043765;28;19921;-65
2022/12/30 12:13:09;;;;;;;;;;;;;;;10.32;96.38;96448.22;5038638;28;20580;-66
2022/12/30 12:15:40;;;;;;;;;;;;;;;10.05;97.87;96445.47;5040720;28;19952;-66
2022/12/30 12:18:11;;;;;;;;;;;;;;;9.84;96.54;96447.88;5038476;28;19971;-66
2022/12/30 12:20:55;;;;;;;;;;;;;;;9.93;96.77;96460.13;5043011;28;20286;-67
2022/12/30 12:23:20;;;;;;;;;;;;;;;9.11;99.01;96456.84;5038384;28;19944;-64
2022/12/30 12:26:04;;;;;;;;;;;;;;;8.75;100.00;96447.19;5043228;28;19917;-65
2022/12/30 12:28:30;;;;;;;;;;;;;;;8.41;100.00;96438.72;5043067;28;19921;-65
2022/12/30 12:30:58;;;;;;;;;;;;;;;8.24;100.00;96440.69;5048371;28;19921;-65
2022/12/30 12:33:47;;;;;;;;;;;;;;;8.10;100.00;96432.19;5042691;28;20838;-65
2022/12/30 12:36:30;;;;;;;;;;;;;;;7.83;100.00;96421.13;5039416;28;19924;-65
2022/12/30 12:39:06;;;;;;;;;;;;;;;7.72;100.00;96419.28;5044695;28;19924;-66
2022/12/30 12:41:52;;;;;;;;;;;;;;;7.56;100.00;96416.56;5044569;28;19928;-64
2022/12/30 12:44:52;;;;;;;;;;;;;;;7.66;100.00;96411.38;5037631;28;20344;-65
2022/12/30 12:47:18;;;;;;;;;;;;;;;7.81;100.00;96406.25;4957632;28;20817;-65
2022/12/30 12:50:02;;;;;;;;;;;;;;;8.03;100.00;96408.31;5025842;28;19917;-66
2022/12/30 12:52:35;;;;;;;;;;;;;;;8.49;100.00;96413.16;5040721;28;19917;-66
2022/12/30 12:55:16;;;;;;;;;;;;;;;8.82;100.00;96408.31;5056134;28;19921;-66
2022/12/30 12:57:50;;;;;;;;;;;;;;;9.16;100.00;96403.84;5051573;28;19995;-67
2022/12/30 13:00:17;;;;;;;;;;;;;;;9.31;100.00;96410.31;5044087;28;19918;-66
2022/12/30 13:02:45;;;;;;;;;;;;;;;9.33;100.00;96413.50;5043093;28;19921;-66
2022/12/30 13:05:29;;;;;;;;;;;;;;;9.42;100.00;96426.91;5038290;28;19920;-66
2022/12/30 13:07:59;;;;;;;;;;;;;;;9.36;100.00;96427.22;5042789;28;19920;-66
2022/12/30 13:10:24;;;;;;;;;;;;;;;9.24;100.00;96421.94;5038339;28;19924;-66
2022/12/30 13:12:59;;;;;;;;;;;;;;;9.16;100.00;96428.44;5041864;28;19917;-66
2022/12/30 13:15:27;;;;;;;;;;;;;;;8.97;100.00;96430.06;5037454;28;20655;-65
2022/12/30 13:17:54;;;;;;;;;;;;;;;8.65;100.00;96434.91;5043332;28;19971;-65
2022/12/30 13:20:22;;;;;;;;;;;;;;;8.72;100.00;96435.06;5037710;28;19927;-64
2022/12/30 13:22:49;;;;;;;;;;;;;;;8.66;100.00;96435.69;5043807;28;19932;-65
2022/12/30 13:25:27;;;;;;;;;;;;;;;8.54;100.00;96436.66;5037353;28;19956;-65
2022/12/30 13:27:53;;;;;;;;;;;;;;;8.44;100.00;96435.28;5024213;28;20058;-65
2022/12/30 13:30:21;;;;;;;;;;;;;;;8.22;100.00;96425.81;5046232;28;19924;-65
2022/12/30 13:32:56;;;;;;;;;;;;;;;8.27;100.00;96439.19;5042087;28;20055;-66
2022/12/30 13:35:39;;;;;;;;;;;;;;;8.26;100.00;96436.81;5019249;28;19927;-66
2022/12/30 13:38:05;;;;;;;;;;;;;;;8.13;100.00;96431.47;5037960;28;20397;-67
2022/12/30 13:40:37;;;;;;;;;;;;;;;8.00;100.00;96441.72;5041820;28;19929;-67
2022/12/30 13:43:26;;;;;;;;;;;;;;;7.99;100.00;96447.53;5039488;28;19920;-66
2022/12/30 13:45:57;;;;;;;;;;;;;;;7.82;100.00;96454.19;5041525;28;20348;-65
2022/12/30 13:48:24;;;;;;;;;;;;;;;7.72;100.00;96446.53;5038170;28;19932;-65
2022/12/30 13:51:06;;;;;;;;;;;;;;;7.66;100.00;96446.03;5042605;28;19977;-65
2022/12/30 13:53:34;;;;;;;;;;;;;;;7.78;100.00;96443.19;5055296;28;19990;-65
2022/12/30 13:56:00;;;;;;;;;;;;;;;7.88;100.00;96441.84;5038795;28;19975;-65
2022/12/30 13:58:29;;;;;;;;;;;;;;;7.75;100.00;96421.31;5045222;28;19960;-65